Terminal Aerodrome Forecast
Issued by NWS Caribou, ME

Home | Current Version | Previous Version | Text Only | Print | Product List | Glossary On
Versions: 1 2 3 4 5 6 7 8 9 10 11 12 13 14 15 16
673
FTUS41 KCAR 130558
TAFBGR
TAF
KBGR 130558Z 1306/1406 11005KT P6SM SCT035 BKN090
     FM131600 04009KT 6SM -SHSN OVC030
     FM131800 36012KT 2SM -SHSN OVC020
     FM132300 34015G25KT 6SM -SHSN OVC035
     FM140300 33015G25KT P6SM OVC035=

USA.gov is the U.S. government's official web portal to all federal, state and local government web resources and services.